createdAt,value
2018-07-27T00:00:17.853Z,61.15
2018-07-27T00:01:17.844Z,60.96
2018-07-27T00:02:17.844Z,61.15
2018-07-27T00:03:17.843Z,61.15
2018-07-27T00:04:17.845Z,61.15
2018-07-27T00:05:17.839Z,61.34
2018-07-27T00:06:17.839Z,61.25
2018-07-27T00:07:17.839Z,61.22
2018-07-27T00:08:17.838Z,61.73
2018-07-27T00:09:17.836Z,62.18
2018-07-27T00:10:17.838Z,62.57
2018-07-27T00:11:17.837Z,62.57
2018-07-27T00:12:17.837Z,62.47
2018-07-27T00:13:17.837Z,61.99
2018-07-27T00:14:17.835Z,62.95
2018-07-27T00:15:17.839Z,62.86
2018-07-27T00:16:17.836Z,63.05
2018-07-27T00:17:17.834Z,62.18
2018-07-27T00:18:17.833Z,62.47
2018-07-27T00:19:17.841Z,62.37
2018-07-27T00:20:17.832Z,62.57
2018-07-27T00:21:17.831Z,62.28
2018-07-27T00:22:17.831Z,62.86
2018-07-27T00:23:17.838Z,62.86
2018-07-27T00:24:17.829Z,62.37
2018-07-27T00:25:17.827Z,62.73
2018-07-27T00:26:17.831Z,61.99
2018-07-27T00:27:17.827Z,63.15
2018-07-27T00:28:17.827Z,62.57
2018-07-27T00:29:17.831Z,61.89
2018-07-27T00:30:17.826Z,62.18
2018-07-27T00:31:17.826Z,63.34
2018-07-27T00:32:17.828Z,63.79
2018-07-27T00:33:17.828Z,63.70
2018-07-27T00:34:17.821Z,63.50
2018-07-27T00:35:17.822Z,63.40
2018-07-27T00:36:17.826Z,63.60
2018-07-27T00:37:17.823Z,63.60
2018-07-27T00:38:17.820Z,64.56
2018-07-27T00:39:17.820Z,64.08
2018-07-27T00:40:17.817Z,64.18
2018-07-27T00:41:17.817Z,63.98
2018-07-27T00:42:17.818Z,63.70
2018-07-27T00:43:17.816Z,63.31
2018-07-27T00:44:17.820Z,63.79
2018-07-27T00:45:17.824Z,63.98
2018-07-27T00:46:17.813Z,64.66
2018-07-27T00:47:17.814Z,64.18
2018-07-27T00:48:17.810Z,63.98
2018-07-27T00:49:17.813Z,63.98
2018-07-27T00:50:17.814Z,64.28
2018-07-27T00:51:17.815Z,64.47
2018-07-27T00:52:17.816Z,65.53
2018-07-27T00:53:17.806Z,66.01
2018-07-27T00:54:17.806Z,66.78
2018-07-27T00:55:17.805Z,66.66
2018-07-27T00:56:17.806Z,66.46
2018-07-27T00:57:17.803Z,66.49
2018-07-27T00:58:17.809Z,65.82
2018-07-27T00:59:17.802Z,65.53
2018-07-27T01:00:17.798Z,65.14
2018-07-27T01:01:17.805Z,65.43
2018-07-27T01:02:17.802Z,65.34
2018-07-27T01:03:17.798Z,65.78
2018-07-27T01:04:17.797Z,66.08
2018-07-27T01:05:17.801Z,66.56
2018-07-27T01:06:17.794Z,66.66
2018-07-27T01:07:17.797Z,67.04
2018-07-27T01:08:17.796Z,66.56
2018-07-27T01:09:17.794Z,66.94
2018-07-27T01:10:17.792Z,66.85
2018-07-27T01:11:17.789Z,67.04
2018-07-27T01:12:17.786Z,66.46
2018-07-27T01:13:17.788Z,66.27
2018-07-27T01:14:17.791Z,66.46
2018-07-27T01:15:17.786Z,66.36
2018-07-27T01:16:17.784Z,65.98
2018-07-27T01:17:17.783Z,66.75
2018-07-27T01:18:17.782Z,66.94
2018-07-27T01:19:17.783Z,67.52
2018-07-27T01:20:17.784Z,67.81
2018-07-27T01:21:17.784Z,67.62
2018-07-27T01:22:17.780Z,67.97
2018-07-27T01:23:17.781Z,67.14
2018-07-27T01:24:17.774Z,67.88
2018-07-27T01:25:17.776Z,68.19
2018-07-27T01:26:17.772Z,68.68
2018-07-27T01:27:17.776Z,68.45
2018-07-27T01:28:17.774Z,68.65
2018-07-27T01:29:17.769Z,68.87
2018-07-27T01:30:17.773Z,68.68
2018-07-27T01:31:17.774Z,69.26
2018-07-27T01:32:17.766Z,69.93
2018-07-27T01:33:17.765Z,69.03
2018-07-27T01:34:17.773Z,68.77
2018-07-27T01:35:17.766Z,69.16
2018-07-27T01:36:17.768Z,68.93
2018-07-27T01:37:17.764Z,69.07
2018-07-27T01:38:17.759Z,68.93
2018-07-27T01:39:17.760Z,68.65
2018-07-27T01:40:17.766Z,68.68
2018-07-27T01:41:17.754Z,68.39
2018-07-27T01:42:17.756Z,67.68
2018-07-27T01:43:17.757Z,68.01
2018-07-27T01:44:17.757Z,67.04
2018-07-27T01:45:17.756Z,66.24
2018-07-27T01:46:17.752Z,65.69
2018-07-27T01:47:17.749Z,65.30
2018-07-27T01:48:17.744Z,65.20
2018-07-27T01:49:17.749Z,65.59
2018-07-27T01:50:17.745Z,65.88
2018-07-27T01:51:17.741Z,65.78
2018-07-27T01:52:17.747Z,66.14
2018-07-27T01:53:17.738Z,67.00
2018-07-27T01:54:17.741Z,66.91
2018-07-27T01:55:17.742Z,67.10
2018-07-27T01:56:17.736Z,68.07
2018-07-27T01:57:17.733Z,68.55
2018-07-27T01:58:17.732Z,68.16
2018-07-27T01:59:17.729Z,68.42
2018-07-27T02:00:17.729Z,68.80
2018-07-27T02:01:17.726Z,68.65
2018-07-27T02:02:17.728Z,68.52
2018-07-27T02:03:17.722Z,68.55
2018-07-27T02:04:17.726Z,68.61
2018-07-27T02:05:17.720Z,68.52
2018-07-27T02:06:17.717Z,68.52
2018-07-27T02:07:17.716Z,68.71
2018-07-27T02:08:17.716Z,68.71
2018-07-27T02:09:17.714Z,68.80
2018-07-27T02:10:17.712Z,68.99
2018-07-27T02:11:17.709Z,69.09
2018-07-27T02:12:17.708Z,68.90
2018-07-27T02:13:17.709Z,68.71
2018-07-27T02:14:17.707Z,69.32
2018-07-27T02:15:17.705Z,68.07
2018-07-27T02:16:17.706Z,67.97
2018-07-27T02:17:17.703Z,68.52
2018-07-27T02:18:17.698Z,69.38
2018-07-27T02:19:17.698Z,69.09
2018-07-27T02:20:17.694Z,69.09
2018-07-27T02:21:17.698Z,68.99
2018-07-27T02:22:17.698Z,69.09
2018-07-27T02:23:17.696Z,68.99
2018-07-27T02:24:17.691Z,69.19
2018-07-27T02:25:17.688Z,68.99
2018-07-27T02:26:17.689Z,68.71
2018-07-27T02:27:17.691Z,68.80
2018-07-27T02:28:17.680Z,69.19
2018-07-27T02:29:17.683Z,69.09
2018-07-27T02:30:17.686Z,68.90
2018-07-27T02:31:17.678Z,68.32
2018-07-27T02:32:17.675Z,67.94
2018-07-27T02:33:17.676Z,68.52
2018-07-27T02:34:17.673Z,69.19
2018-07-27T02:35:17.671Z,69.57
2018-07-27T02:36:17.676Z,69.67
2018-07-27T02:37:17.667Z,70.15
2018-07-27T02:38:17.669Z,70.44
2018-07-27T02:39:17.665Z,71.22
2018-07-27T02:40:17.668Z,71.02
2018-07-27T02:41:17.666Z,71.02
2018-07-27T02:42:17.659Z,71.60
2018-07-27T02:43:17.659Z,71.56
2018-07-27T02:44:17.661Z,71.70
2018-07-27T02:45:17.668Z,71.89
2018-07-27T02:46:17.653Z,71.89
2018-07-27T02:47:17.652Z,71.70
2018-07-27T02:48:17.652Z,71.76
2018-07-27T02:49:17.654Z,71.76
2018-07-27T02:50:17.647Z,72.18
2018-07-27T02:51:17.716Z,72.05
2018-07-27T02:52:17.645Z,72.24
2018-07-27T02:53:17.641Z,72.63
2018-07-27T02:54:17.647Z,72.43
2018-07-27T02:55:17.643Z,72.85
2018-07-27T02:56:17.635Z,71.60
2018-07-27T02:57:17.633Z,70.54
2018-07-27T02:58:17.636Z,70.15
2018-07-27T02:59:17.637Z,70.15
2018-07-27T03:00:17.629Z,70.64
2018-07-27T03:01:17.626Z,71.41
2018-07-27T03:02:17.623Z,71.85
2018-07-27T03:03:17.627Z,71.66
2018-07-27T03:04:17.621Z,72.05
2018-07-27T03:05:17.627Z,72.24
2018-07-27T03:06:17.620Z,72.53
2018-07-27T03:07:17.615Z,72.91
2018-07-27T03:08:17.619Z,73.58
2018-07-27T03:09:17.615Z,73.20
2018-07-27T03:10:17.614Z,72.63
2018-07-27T03:11:17.608Z,72.33
2018-07-27T03:12:17.604Z,73.01
2018-07-27T03:13:17.604Z,72.53
2018-07-27T03:14:17.604Z,72.81
2018-07-27T03:15:17.601Z,73.10
2018-07-27T03:16:17.599Z,73.97
2018-07-27T03:17:17.597Z,74.45
2018-07-27T03:18:17.600Z,74.36
2018-07-27T03:19:17.600Z,74.45
2018-07-27T03:20:17.593Z,74.07
2018-07-27T03:21:17.595Z,74.74
2018-07-27T03:22:17.589Z,74.45
2018-07-27T03:23:17.593Z,73.58
2018-07-27T03:24:17.582Z,73.58
2018-07-27T03:25:17.583Z,73.78
2018-07-27T03:26:17.580Z,73.10
2018-07-27T03:27:17.580Z,73.10
2018-07-27T03:28:17.574Z,73.01
2018-07-27T03:29:17.580Z,73.78
2018-07-27T03:30:17.573Z,74.16
2018-07-27T03:31:17.573Z,73.97
2018-07-27T03:32:17.575Z,73.39
2018-07-27T03:33:17.571Z,73.46
2018-07-27T03:34:17.568Z,72.53
2018-07-27T03:35:17.565Z,72.72
2018-07-27T03:36:17.564Z,73.16
2018-07-27T03:37:17.565Z,72.81
2018-07-27T03:38:17.617Z,72.01
2018-07-27T03:39:17.557Z,72.39
2018-07-27T03:40:17.554Z,72.43
2018-07-27T03:41:17.560Z,73.01
2018-07-27T03:42:17.551Z,73.58
2018-07-27T03:43:17.550Z,73.88
2018-07-27T03:44:17.546Z,73.78
2018-07-27T03:45:17.549Z,74.07
2018-07-27T03:46:17.544Z,74.13
2018-07-27T03:47:17.542Z,74.45
2018-07-27T03:48:17.539Z,74.80
2018-07-27T03:49:17.543Z,75.48
2018-07-27T03:50:17.535Z,75.76
2018-07-27T03:51:17.534Z,75.86
2018-07-27T03:52:17.536Z,76.06
2018-07-27T03:53:17.536Z,75.76
2018-07-27T03:54:17.530Z,75.76
2018-07-27T03:55:17.527Z,75.48
2018-07-27T03:56:17.527Z,75.03
2018-07-27T03:57:17.521Z,74.45
2018-07-27T03:58:17.519Z,75.19
2018-07-27T03:59:17.521Z,75.28
2018-07-27T04:00:17.517Z,75.48
2018-07-27T04:01:17.511Z,76.06
2018-07-27T04:02:17.574Z,76.25
2018-07-27T04:03:17.508Z,75.57
2018-07-27T04:04:17.512Z,75.48
2018-07-27T04:05:17.505Z,75.76
2018-07-27T04:06:17.506Z,76.25
2018-07-27T04:07:17.504Z,75.86
2018-07-27T04:08:17.496Z,76.15
2018-07-27T04:09:17.500Z,76.15
2018-07-27T04:10:17.499Z,76.25
2018-07-27T04:11:17.492Z,76.82
2018-07-27T04:12:17.490Z,76.92
2018-07-27T04:13:17.485Z,76.53
2018-07-27T04:14:17.489Z,76.15
2018-07-27T04:15:17.483Z,76.06
2018-07-27T04:16:17.479Z,75.57
2018-07-27T04:17:17.477Z,75.76
2018-07-27T04:18:17.475Z,75.67
2018-07-27T04:19:17.473Z,75.67
2018-07-27T04:20:17.472Z,76.63
2018-07-27T04:21:17.467Z,75.96
2018-07-27T04:22:17.508Z,75.28
2018-07-27T04:23:17.469Z,75.38
2018-07-27T04:24:17.460Z,74.41
2018-07-27T04:25:17.458Z,74.41
2018-07-27T04:26:17.464Z,74.71
2018-07-27T04:27:17.461Z,75.48
2018-07-27T04:28:17.457Z,76.63
2018-07-27T04:29:17.455Z,77.11
2018-07-27T04:30:17.448Z,77.50
2018-07-27T04:31:17.448Z,77.59
2018-07-27T04:32:17.444Z,77.59
2018-07-27T04:33:17.442Z,76.92
2018-07-27T04:34:17.442Z,76.63
2018-07-27T04:35:17.446Z,76.86
2018-07-27T04:36:17.436Z,76.57
2018-07-27T04:37:17.436Z,75.61
2018-07-27T04:38:17.430Z,73.72
2018-07-27T04:39:17.430Z,70.74
2018-07-27T04:40:17.424Z,67.88
2018-07-27T04:41:17.422Z,65.14
2018-07-27T04:42:17.427Z,62.66
2018-07-27T04:43:17.421Z,61.36
2018-07-27T04:44:17.421Z,59.66
2018-07-27T04:45:17.418Z,57.75
2018-07-27T04:46:17.422Z,56.41
2018-07-27T04:47:17.424Z,55.87
2018-07-27T04:48:17.417Z,54.99
2018-07-27T04:49:17.422Z,54.34
2018-07-27T04:50:17.419Z,54.34
2018-07-27T04:51:17.425Z,53.39
2018-07-27T04:52:17.419Z,53.20
2018-07-27T04:53:17.428Z,51.97
2018-07-27T04:54:17.425Z,50.92
2018-07-27T04:55:17.427Z,50.43
2018-07-27T04:56:17.460Z,49.97
2018-07-27T04:57:17.432Z,49.49
2018-07-27T04:58:17.440Z,48.93
2018-07-27T04:59:17.443Z,48.44
2018-07-27T05:00:17.443Z,47.66
2018-07-27T05:01:17.451Z,47.49
2018-07-27T05:02:17.447Z,47.08
2018-07-27T05:03:17.453Z,46.88
2018-07-27T05:04:17.457Z,47.30
2018-07-27T05:05:17.464Z,47.10
2018-07-27T05:06:17.466Z,46.42
2018-07-27T05:07:17.474Z,46.64
2018-07-27T05:08:17.474Z,46.54
2018-07-27T05:09:17.482Z,46.25
2018-07-27T05:10:17.486Z,45.37
2018-07-27T05:11:17.495Z,45.68
2018-07-27T05:12:17.497Z,45.10
2018-07-27T05:13:17.502Z,45.00
2018-07-27T05:14:17.510Z,44.52
2018-07-27T05:15:17.513Z,44.71
2018-07-27T05:16:17.520Z,44.52
2018-07-27T05:17:17.523Z,45.10
2018-07-27T05:18:17.642Z,44.90
2018-07-27T05:19:17.540Z,44.49
2018-07-27T05:20:17.539Z,46.03
2018-07-27T05:21:17.549Z,46.25
2018-07-27T05:22:17.553Z,45.23
2018-07-27T05:23:17.555Z,46.47
2018-07-27T05:24:17.559Z,47.54
2018-07-27T05:25:17.566Z,48.39
2018-07-27T05:26:17.567Z,48.78
2018-07-27T05:27:17.570Z,49.05
2018-07-27T05:28:17.574Z,49.92
2018-07-27T05:29:17.577Z,50.48
2018-07-27T05:30:17.582Z,50.92
2018-07-27T05:31:17.585Z,53.41
2018-07-27T05:32:17.593Z,53.41
2018-07-27T05:33:17.591Z,54.26
2018-07-27T05:34:17.630Z,55.36
2018-07-27T05:35:17.600Z,56.43
2018-07-27T05:36:17.595Z,56.92
2018-07-27T05:37:17.604Z,58.04
2018-07-27T05:38:17.599Z,57.63
2018-07-27T05:39:17.607Z,59.66
2018-07-27T05:40:17.604Z,60.17
2018-07-27T05:41:17.605Z,59.89
2018-07-27T05:42:17.606Z,59.21
2018-07-27T05:43:17.608Z,59.91
2018-07-27T05:44:17.612Z,59.53
2018-07-27T05:45:17.613Z,59.43
2018-07-27T05:46:17.609Z,58.27
2018-07-27T05:47:17.613Z,57.62
2018-07-27T05:48:17.612Z,56.94
2018-07-27T05:49:17.618Z,57.43
2018-07-27T05:50:17.620Z,57.33
2018-07-27T05:51:17.617Z,56.94
2018-07-27T05:52:17.615Z,57.14
2018-07-27T05:53:17.619Z,57.33
2018-07-27T05:54:17.619Z,57.26
2018-07-27T05:55:17.623Z,57.17
2018-07-27T05:56:17.620Z,56.20
2018-07-27T05:57:17.624Z,57.26
2018-07-27T05:58:17.631Z,55.62
2018-07-27T05:59:17.627Z,55.52
2018-07-27T06:00:17.631Z,55.04
2018-07-27T06:01:17.690Z,55.88
2018-07-27T06:02:17.632Z,57.33
2018-07-27T06:03:17.629Z,56.75
2018-07-27T06:04:17.630Z,57.04
2018-07-27T06:05:17.631Z,56.85
2018-07-27T06:06:17.632Z,58.20
2018-07-27T06:07:17.631Z,57.07
2018-07-27T06:08:17.632Z,56.97
2018-07-27T06:09:17.633Z,57.26
2018-07-27T06:10:17.635Z,56.97
2018-07-27T06:11:17.704Z,56.51
2018-07-27T06:12:17.640Z,56.23
2018-07-27T06:13:17.639Z,54.38
2018-07-27T06:14:17.637Z,55.32
2018-07-27T06:15:17.644Z,55.68
2018-07-27T06:16:17.645Z,55.68
2018-07-27T06:17:17.641Z,56.16
2018-07-27T06:18:17.648Z,56.26
2018-07-27T06:19:17.642Z,57.14
2018-07-27T06:20:17.644Z,57.71
2018-07-27T06:21:17.647Z,57.53
2018-07-27T06:22:17.646Z,57.07
2018-07-27T06:23:17.647Z,57.07
2018-07-27T06:24:17.755Z,56.29
2018-07-27T06:25:17.648Z,55.44
2018-07-27T06:26:17.650Z,55.26
2018-07-27T06:27:17.652Z,55.64
2018-07-27T06:28:17.688Z,54.58
2018-07-27T06:29:17.715Z,55.16
2018-07-27T06:30:17.654Z,55.38
2018-07-27T06:31:17.661Z,54.21
2018-07-27T06:32:17.656Z,54.21
2018-07-27T06:33:17.661Z,54.21
2018-07-27T06:34:17.659Z,53.95
2018-07-27T06:35:17.659Z,53.08
2018-07-27T06:36:17.659Z,53.17
2018-07-27T06:37:17.662Z,53.27
2018-07-27T06:38:17.664Z,53.17
2018-07-27T06:39:17.670Z,53.37
2018-07-27T06:40:17.670Z,52.50
2018-07-27T06:41:17.672Z,52.42
2018-07-27T06:42:17.671Z,52.52
2018-07-27T06:43:17.672Z,52.52
2018-07-27T06:44:17.671Z,52.81
2018-07-27T06:45:17.704Z,52.72
2018-07-27T06:46:17.679Z,52.52
2018-07-27T06:47:17.676Z,52.74
2018-07-27T06:48:17.684Z,52.55
2018-07-27T06:49:17.679Z,52.03
2018-07-27T06:50:17.681Z,51.48
2018-07-27T06:51:17.682Z,51.28
2018-07-27T06:52:17.709Z,51.38
2018-07-27T06:53:17.689Z,51.18
2018-07-27T06:54:17.687Z,50.99
2018-07-27T06:55:17.690Z,51.09
2018-07-27T06:56:17.689Z,50.89
2018-07-27T06:57:17.694Z,52.06
2018-07-27T06:58:17.702Z,51.40
2018-07-27T06:59:17.699Z,50.73
2018-07-27T07:00:17.699Z,50.92
2018-07-27T07:01:17.706Z,50.92
2018-07-27T07:02:17.703Z,50.24
2018-07-27T07:03:17.704Z,50.34
2018-07-27T07:04:17.706Z,50.14
2018-07-27T07:05:17.711Z,49.87
2018-07-27T07:06:17.710Z,48.51
2018-07-27T07:07:17.715Z,47.25
2018-07-27T07:08:17.714Z,47.74
2018-07-27T07:09:17.719Z,47.54
2018-07-27T07:10:17.720Z,47.93
2018-07-27T07:11:17.728Z,48.13
2018-07-27T07:12:17.726Z,48.13
2018-07-27T07:13:17.728Z,48.03
2018-07-27T07:14:17.734Z,47.64
2018-07-27T07:15:17.732Z,47.76
2018-07-27T07:16:17.737Z,47.47
2018-07-27T07:17:17.736Z,47.08
2018-07-27T07:18:17.738Z,46.78
2018-07-27T07:19:17.747Z,47.08
2018-07-27T07:20:17.750Z,46.30
2018-07-27T07:21:17.747Z,46.69
2018-07-27T07:22:17.754Z,46.20
2018-07-27T07:23:17.751Z,46.20
2018-07-27T07:24:17.754Z,46.11
2018-07-27T07:25:17.874Z,46.13
2018-07-27T07:26:17.760Z,45.91
2018-07-27T07:27:17.764Z,46.13
2018-07-27T07:28:17.768Z,45.25
2018-07-27T07:29:17.767Z,45.64
2018-07-27T07:30:17.773Z,45.35
2018-07-27T07:31:17.777Z,45.35
2018-07-27T07:32:17.773Z,45.64
2018-07-27T07:33:17.847Z,45.94
2018-07-27T07:34:17.779Z,45.47
2018-07-27T07:35:17.783Z,45.54
2018-07-27T07:36:17.785Z,46.32
2018-07-27T07:37:17.791Z,46.23
2018-07-27T07:38:17.791Z,46.15
2018-07-27T07:39:17.797Z,46.54
2018-07-27T07:40:17.797Z,45.28
2018-07-27T07:41:17.807Z,45.67
2018-07-27T07:42:17.803Z,45.74
2018-07-27T07:43:17.809Z,46.32
2018-07-27T07:44:17.813Z,46.42
2018-07-27T07:45:17.816Z,47.08
2018-07-27T07:46:17.821Z,47.69
2018-07-27T07:47:17.823Z,47.88
2018-07-27T07:48:17.826Z,47.69
2018-07-27T07:49:17.898Z,46.71
2018-07-27T07:50:17.831Z,46.64
2018-07-27T07:51:17.837Z,46.61
2018-07-27T07:52:17.837Z,47.13
2018-07-27T07:53:17.837Z,46.73
2018-07-27T07:54:17.839Z,46.83
2018-07-27T07:55:17.843Z,47.22
2018-07-27T07:56:17.852Z,46.27
2018-07-27T07:57:17.848Z,46.25
2018-07-27T07:58:17.853Z,47.32
2018-07-27T07:59:17.858Z,47.03
2018-07-27T08:00:17.862Z,46.17
2018-07-27T08:01:17.866Z,45.39
2018-07-27T08:02:17.865Z,45.49
2018-07-27T08:03:17.867Z,46.17
2018-07-27T08:04:17.925Z,45.47
2018-07-27T08:05:17.879Z,45.74
2018-07-27T08:06:17.878Z,46.81
2018-07-27T08:07:17.880Z,47.10
2018-07-27T08:08:17.882Z,46.61
2018-07-27T08:09:17.886Z,47.13
2018-07-27T08:10:17.897Z,46.54
2018-07-27T08:11:18.010Z,45.59
2018-07-27T08:12:17.895Z,45.49
2018-07-27T08:13:17.902Z,45.10
2018-07-27T08:14:17.903Z,44.23
2018-07-27T08:15:17.908Z,43.57
2018-07-27T08:16:17.910Z,43.57
2018-07-27T08:17:18.002Z,43.66
2018-07-27T08:18:17.918Z,43.57
2018-07-27T08:19:17.923Z,43.49
2018-07-27T08:20:17.928Z,42.90
2018-07-27T08:21:17.928Z,43.68
2018-07-27T08:22:17.935Z,43.22
2018-07-27T08:23:17.935Z,42.63
2018-07-27T08:24:17.942Z,42.93
2018-07-27T08:25:17.947Z,42.73
2018-07-27T08:26:17.946Z,41.85
2018-07-27T08:27:17.950Z,41.48
2018-07-27T08:28:17.952Z,41.19
2018-07-27T08:29:17.957Z,41.67
2018-07-27T08:30:17.967Z,41.48
2018-07-27T08:31:17.966Z,41.97
2018-07-27T08:32:17.968Z,41.38
2018-07-27T08:33:17.974Z,41.09
2018-07-27T08:34:17.977Z,41.09
2018-07-27T08:35:17.987Z,40.99
2018-07-27T08:36:17.983Z,40.70
2018-07-27T08:37:17.987Z,40.41
2018-07-27T08:38:17.994Z,40.60
2018-07-27T08:39:17.998Z,40.31
2018-07-27T08:40:18.001Z,41.28
2018-07-27T08:41:18.007Z,41.28
2018-07-27T08:42:18.011Z,41.19
2018-07-27T08:43:18.015Z,41.28
2018-07-27T08:44:18.021Z,41.58
2018-07-27T08:45:18.021Z,41.09
2018-07-27T08:46:18.032Z,41.19
2018-07-27T08:47:18.061Z,41.28
2018-07-27T08:48:18.038Z,40.60
2018-07-27T08:49:18.039Z,41.31
2018-07-27T08:50:18.058Z,41.02
2018-07-27T08:51:18.050Z,40.53
2018-07-27T08:52:18.058Z,40.72
2018-07-27T08:53:18.060Z,39.86
2018-07-27T08:54:18.067Z,40.23
2018-07-27T08:55:18.066Z,40.94
2018-07-27T08:56:18.136Z,40.35
2018-07-27T08:57:18.078Z,39.86
2018-07-27T08:58:18.082Z,39.37
2018-07-27T08:59:18.084Z,39.37
2018-07-27T09:00:18.087Z,39.28
2018-07-27T09:01:18.092Z,38.61
2018-07-27T09:02:18.098Z,39.18
2018-07-27T09:03:18.101Z,39.28
2018-07-27T09:04:18.107Z,39.28
2018-07-27T09:05:18.115Z,38.79
2018-07-27T09:06:18.115Z,38.98
2018-07-27T09:07:18.121Z,39.37
2018-07-27T09:08:18.124Z,39.39
2018-07-27T09:09:18.129Z,38.61
2018-07-27T09:10:18.150Z,38.30
2018-07-27T09:11:18.138Z,38.61
2018-07-27T09:12:18.143Z,38.71
2018-07-27T09:13:18.148Z,38.71
2018-07-27T09:14:18.158Z,38.32
2018-07-27T09:15:18.165Z,38.42
2018-07-27T09:16:18.167Z,37.93
2018-07-27T09:17:18.228Z,37.93
2018-07-27T09:18:18.223Z,37.54
2018-07-27T09:19:18.177Z,38.01
2018-07-27T09:20:18.181Z,39.08
2018-07-27T09:21:18.187Z,37.22
2018-07-27T09:22:18.191Z,37.30
2018-07-27T09:23:18.197Z,38.18
2018-07-27T09:24:18.229Z,38.94
2018-07-27T09:25:18.531Z,39.14
2018-07-27T09:26:18.212Z,39.14
2018-07-27T09:27:18.215Z,39.31
2018-07-27T09:28:18.219Z,40.11
2018-07-27T09:29:18.227Z,39.33
2018-07-27T09:30:18.227Z,39.16
2018-07-27T09:31:18.235Z,39.26
2018-07-27T09:32:18.239Z,38.77
2018-07-27T09:33:18.244Z,38.77
2018-07-27T09:34:18.302Z,39.55
2018-07-27T09:35:18.381Z,39.26
2018-07-27T09:36:18.256Z,39.16
2018-07-27T09:37:18.260Z,38.87
2018-07-27T09:38:18.265Z,38.67
2018-07-27T09:39:18.271Z,38.67
2018-07-27T09:40:18.288Z,38.87
2018-07-27T09:41:18.280Z,38.28
2018-07-27T09:42:18.282Z,38.28
2018-07-27T09:43:18.292Z,37.99
2018-07-27T09:44:18.292Z,37.89
2018-07-27T09:45:18.304Z,38.28
2018-07-27T09:46:18.302Z,38.57
2018-07-27T09:47:18.306Z,38.87
2018-07-27T09:48:18.317Z,38.38
2018-07-27T09:49:18.315Z,37.91
2018-07-27T09:50:18.326Z,37.60
2018-07-27T09:51:18.328Z,38.18
2018-07-27T09:52:18.327Z,38.38
2018-07-27T09:53:18.333Z,38.38
2018-07-27T09:54:18.355Z,38.38
2018-07-27T09:55:18.346Z,38.48
2018-07-27T09:56:18.345Z,38.10
2018-07-27T09:57:18.353Z,37.71
2018-07-27T09:58:18.360Z,37.91
2018-07-27T09:59:18.363Z,37.11
2018-07-27T10:00:18.366Z,37.52
2018-07-27T10:01:18.369Z,37.41
2018-07-27T10:02:18.378Z,37.52
2018-07-27T10:03:18.383Z,37.41
2018-07-27T10:04:18.383Z,37.41
2018-07-27T10:05:18.391Z,37.22
2018-07-27T10:06:18.397Z,38.01
2018-07-27T10:07:18.396Z,38.01
2018-07-27T10:08:18.401Z,37.71
2018-07-27T10:09:18.407Z,37.71
2018-07-27T10:10:18.410Z,37.91
2018-07-27T10:11:18.416Z,37.50
2018-07-27T10:12:18.420Z,37.40
2018-07-27T10:13:18.424Z,37.40
2018-07-27T10:14:18.432Z,37.21
2018-07-27T10:15:18.434Z,37.11
2018-07-27T10:16:18.438Z,37.40
2018-07-27T10:17:18.440Z,37.40
2018-07-27T10:18:18.447Z,37.40
2018-07-27T10:19:18.456Z,36.62
2018-07-27T10:20:18.454Z,36.91
2018-07-27T10:21:18.459Z,37.91
2018-07-27T10:22:18.462Z,37.81
2018-07-27T10:23:18.474Z,37.43
2018-07-27T10:24:18.473Z,36.55
2018-07-27T10:25:18.480Z,34.89
2018-07-27T10:26:18.487Z,35.09
2018-07-27T10:27:18.487Z,34.89
2018-07-27T10:28:18.495Z,35.28
2018-07-27T10:29:18.498Z,35.28
2018-07-27T10:30:18.500Z,35.38
2018-07-27T10:31:18.573Z,35.68
2018-07-27T10:32:18.519Z,35.77
2018-07-27T10:33:18.514Z,35.95
2018-07-27T10:34:18.524Z,36.05
2018-07-27T10:35:18.530Z,36.05
2018-07-27T10:36:18.529Z,35.87
2018-07-27T10:37:18.535Z,35.75
2018-07-27T10:38:18.544Z,35.48
2018-07-27T10:39:18.544Z,35.87
2018-07-27T10:40:18.549Z,36.83
2018-07-27T10:41:18.559Z,36.26
2018-07-27T10:42:18.560Z,35.87
2018-07-27T10:43:18.562Z,35.19
2018-07-27T10:44:18.571Z,34.89
2018-07-27T10:45:18.576Z,35.58
2018-07-27T10:46:18.583Z,35.58
2018-07-27T10:47:18.589Z,35.19
2018-07-27T10:48:18.587Z,34.89
2018-07-27T10:49:18.591Z,35.19
2018-07-27T10:50:18.638Z,34.41
2018-07-27T10:51:18.605Z,34.09
2018-07-27T10:52:18.605Z,34.39
2018-07-27T10:53:18.612Z,33.62
2018-07-27T10:54:18.617Z,34.01
2018-07-27T10:55:18.622Z,33.43
2018-07-27T10:56:18.648Z,32.84
2018-07-27T10:57:18.635Z,31.67
2018-07-27T10:58:18.635Z,30.58
2018-07-27T10:59:18.645Z,30.10
2018-07-27T11:00:18.644Z,31.87
2018-07-27T11:01:18.651Z,32.65
2018-07-27T11:02:18.702Z,33.33
2018-07-27T11:03:18.664Z,33.43
2018-07-27T11:04:18.670Z,33.04
2018-07-27T11:05:18.667Z,32.46
2018-07-27T11:06:18.674Z,31.00
2018-07-27T11:07:18.677Z,31.20
2018-07-27T11:08:18.688Z,29.81
2018-07-27T11:09:18.687Z,30.22
2018-07-27T11:10:18.691Z,31.78
2018-07-27T11:11:18.697Z,32.27
2018-07-27T11:12:18.699Z,31.98
2018-07-27T11:13:18.706Z,31.60
2018-07-27T11:14:18.710Z,31.68
2018-07-27T11:15:18.767Z,31.98
2018-07-27T11:16:18.766Z,31.98
2018-07-27T11:17:18.771Z,32.27
2018-07-27T11:18:18.738Z,31.59
2018-07-27T11:19:18.736Z,31.59
2018-07-27T11:20:18.738Z,30.51
2018-07-27T11:21:18.763Z,29.04
2018-07-27T11:22:18.750Z,28.45
2018-07-27T11:23:18.754Z,28.16
2018-07-27T11:24:18.766Z,27.87
2018-07-27T11:25:18.763Z,30.61
2018-07-27T11:26:18.772Z,27.58
2018-07-27T11:27:18.778Z,26.79
2018-07-27T11:28:18.779Z,26.89
2018-07-27T11:29:18.787Z,28.06
2018-07-27T11:30:18.788Z,28.45
2018-07-27T11:31:18.797Z,29.83
2018-07-27T11:32:18.795Z,30.22
2018-07-27T11:33:18.801Z,30.61
2018-07-27T11:34:18.814Z,30.33
2018-07-27T11:35:18.813Z,30.72
2018-07-27T11:36:18.821Z,31.80
2018-07-27T11:37:18.852Z,32.09
2018-07-27T11:38:18.828Z,32.78
2018-07-27T11:39:18.830Z,32.87
2018-07-27T11:40:18.837Z,32.19
2018-07-27T11:41:18.850Z,31.80
2018-07-27T11:42:18.935Z,32.19
2018-07-27T11:43:18.855Z,31.80
2018-07-27T11:44:18.861Z,31.99
2018-07-27T11:45:18.860Z,31.70
2018-07-27T11:46:18.867Z,32.29
2018-07-27T11:47:18.870Z,32.29
2018-07-27T11:48:18.877Z,31.51
2018-07-27T11:49:18.917Z,31.51
2018-07-27T11:50:18.888Z,31.70
2018-07-27T11:51:18.892Z,32.09
2018-07-27T11:52:18.898Z,31.31
2018-07-27T11:53:18.902Z,30.23
2018-07-27T11:54:18.913Z,30.33
2018-07-27T11:55:18.918Z,29.84
2018-07-27T11:56:18.921Z,29.74
2018-07-27T11:57:18.921Z,30.64
2018-07-27T11:58:18.926Z,29.17
2018-07-27T11:59:18.936Z,28.99
2018-07-27T12:00:18.953Z,29.08
2018-07-27T12:01:18.942Z,28.30
2018-07-27T12:02:18.949Z,29.39
2018-07-27T12:03:18.958Z,29.30
2018-07-27T12:04:18.955Z,27.94
2018-07-27T12:05:18.964Z,27.14
2018-07-27T12:06:18.974Z,27.44
2018-07-27T12:07:18.974Z,26.84
2018-07-27T12:08:18.977Z,26.16
2018-07-27T12:09:18.988Z,25.87
2018-07-27T12:10:18.993Z,25.87
2018-07-27T12:11:19.001Z,27.14
2018-07-27T12:12:19.002Z,28.12
2018-07-27T12:13:19.011Z,27.63
2018-07-27T12:14:19.183Z,27.35
2018-07-27T12:15:19.253Z,27.94
2018-07-27T12:16:19.030Z,28.51
2018-07-27T12:17:19.029Z,28.33
2018-07-27T12:18:19.038Z,28.43
2018-07-27T12:19:19.040Z,28.71
2018-07-27T12:20:19.054Z,28.71
2018-07-27T12:21:19.150Z,28.81
2018-07-27T12:22:19.064Z,29.10
2018-07-27T12:23:19.071Z,29.18
2018-07-27T12:24:19.069Z,29.08
2018-07-27T12:25:19.082Z,29.68
2018-07-27T12:26:19.081Z,29.69
2018-07-27T12:27:19.089Z,29.30
2018-07-27T12:28:19.094Z,29.30
2018-07-27T12:29:19.105Z,30.18
2018-07-27T12:30:19.110Z,29.69
2018-07-27T12:31:19.115Z,28.81
2018-07-27T12:32:19.115Z,26.45
2018-07-27T12:33:19.224Z,25.57
2018-07-27T12:34:19.128Z,23.91
2018-07-27T12:35:19.138Z,23.52
2018-07-27T12:36:19.144Z,23.52
2018-07-27T12:37:19.209Z,22.73
2018-07-27T12:38:19.150Z,23.32
2018-07-27T12:39:19.157Z,24.10
2018-07-27T12:40:19.162Z,25.10
2018-07-27T12:41:19.173Z,25.57
2018-07-27T12:42:19.173Z,25.68
2018-07-27T12:43:19.181Z,26.86
2018-07-27T12:44:19.188Z,26.37
2018-07-27T12:45:19.194Z,27.63
2018-07-27T12:46:19.204Z,28.13
2018-07-27T12:47:19.202Z,27.64
2018-07-27T12:48:19.218Z,27.25
2018-07-27T12:49:19.214Z,27.63
2018-07-27T12:50:19.228Z,27.63
2018-07-27T12:51:19.316Z,28.02
2018-07-27T12:52:19.231Z,27.92